createdAt,value
2022-12-04T00:00:20.720Z,19.40
2022-12-04T00:01:20.664Z,19.40
2022-12-04T00:02:20.658Z,19.40
2022-12-04T00:03:20.724Z,19.40
2022-12-04T00:04:20.659Z,19.40
2022-12-04T00:05:20.633Z,19.40
2022-12-04T00:06:20.654Z,19.40
2022-12-04T00:07:20.604Z,19.39
2022-12-04T00:08:20.592Z,19.40
2022-12-04T00:09:20.582Z,19.39
2022-12-04T00:10:20.589Z,19.39
2022-12-04T00:11:20.566Z,19.37
2022-12-04T00:12:20.587Z,19.37
2022-12-04T00:13:20.544Z,19.37
2022-12-04T00:14:20.530Z,19.37
2022-12-04T00:15:25.729Z,19.40
2022-12-04T00:16:20.591Z,19.39
2022-12-04T00:17:20.498Z,19.37
2022-12-04T00:18:20.536Z,19.39
2022-12-04T00:19:20.479Z,19.39
2022-12-04T00:20:20.464Z,19.39
2022-12-04T00:21:20.455Z,19.37
2022-12-04T00:22:20.447Z,19.39
2022-12-04T00:23:20.426Z,19.37
2022-12-04T00:24:20.453Z,19.36
2022-12-04T00:25:20.413Z,19.39
2022-12-04T00:26:20.402Z,19.39
2022-12-04T00:27:20.398Z,19.39
2022-12-04T00:28:20.377Z,19.39
2022-12-04T00:29:20.365Z,19.40
2022-12-04T00:30:20.381Z,19.40
2022-12-04T00:31:20.407Z,19.39
2022-12-04T00:32:20.337Z,19.40
2022-12-04T00:33:20.326Z,19.40
2022-12-04T00:34:20.315Z,19.41
2022-12-04T00:35:20.301Z,19.41
2022-12-04T00:36:20.318Z,19.41
2022-12-04T00:37:20.278Z,19.40
2022-12-04T00:38:20.274Z,19.40
2022-12-04T00:39:20.262Z,19.40
2022-12-04T00:40:20.245Z,19.41
2022-12-04T00:41:20.235Z,19.43
2022-12-04T00:42:20.252Z,19.44
2022-12-04T00:43:20.222Z,19.41
2022-12-04T00:44:20.206Z,19.44
2022-12-04T00:45:20.190Z,19.41
2022-12-04T00:46:20.305Z,19.43
2022-12-04T00:47:20.170Z,19.44
2022-12-04T00:48:20.189Z,19.46
2022-12-04T00:49:20.150Z,19.46
2022-12-04T00:50:20.130Z,19.44
2022-12-04T00:51:20.122Z,19.46
2022-12-04T00:52:20.110Z,19.46
2022-12-04T00:53:20.106Z,19.44
2022-12-04T00:54:20.122Z,19.47
2022-12-04T00:55:20.086Z,19.47
2022-12-04T00:56:20.070Z,19.47
2022-12-04T00:57:20.058Z,19.46
2022-12-04T00:58:20.051Z,19.47
2022-12-04T00:59:20.039Z,19.47
2022-12-04T01:00:20.066Z,19.47
2022-12-04T01:01:20.166Z,19.46
2022-12-04T01:02:20.011Z,19.46
2022-12-04T01:03:20.074Z,19.46
2022-12-04T01:04:19.978Z,19.47
2022-12-04T01:05:19.971Z,19.44
2022-12-04T01:06:20.003Z,19.44
2022-12-04T01:07:19.956Z,19.44
2022-12-04T01:08:19.991Z,19.46
2022-12-04T01:09:19.936Z,19.44
2022-12-04T01:10:19.923Z,19.44
2022-12-04T01:11:19.903Z,19.44
2022-12-04T01:12:21.125Z,19.44
2022-12-04T01:13:19.891Z,19.43
2022-12-04T01:14:19.880Z,19.44
2022-12-04T01:15:19.859Z,19.44
2022-12-04T01:16:19.938Z,19.44
2022-12-04T01:17:19.848Z,19.46
2022-12-04T01:18:19.859Z,19.46
2022-12-04T01:19:19.820Z,19.44
2022-12-04T01:20:19.808Z,19.44
2022-12-04T01:21:19.800Z,19.44
2022-12-04T01:22:19.788Z,19.44
2022-12-04T01:23:19.775Z,19.43
2022-12-04T01:24:19.800Z,19.43
2022-12-04T01:25:19.756Z,19.41
2022-12-04T01:26:19.747Z,19.43
2022-12-04T01:27:19.732Z,19.43
2022-12-04T01:28:19.716Z,19.41
2022-12-04T01:29:19.712Z,19.43
2022-12-04T01:30:19.726Z,19.43
2022-12-04T01:31:19.770Z,19.41
2022-12-04T01:32:19.676Z,19.43
2022-12-04T01:33:19.664Z,19.41
2022-12-04T01:34:19.653Z,19.41
2022-12-04T01:35:19.640Z,19.41
2022-12-04T01:36:19.671Z,19.41
2022-12-04T01:37:19.620Z,19.43
2022-12-04T01:38:19.612Z,19.43
2022-12-04T01:39:19.600Z,19.43
2022-12-04T01:40:19.584Z,19.43
2022-12-04T01:41:19.581Z,19.43
2022-12-04T01:42:19.597Z,19.41
2022-12-04T01:43:19.556Z,19.41
2022-12-04T01:44:19.544Z,19.41
2022-12-04T01:45:19.540Z,19.41
2022-12-04T01:46:19.580Z,19.40
2022-12-04T01:47:19.516Z,19.41
2022-12-04T01:48:19.541Z,19.43
2022-12-04T01:49:19.488Z,19.43
2022-12-04T01:50:19.480Z,19.41
2022-12-04T01:51:19.469Z,19.41
2022-12-04T01:52:19.458Z,19.41
2022-12-04T01:53:19.452Z,19.43
2022-12-04T01:54:19.473Z,19.44
2022-12-04T01:55:19.422Z,19.46
2022-12-04T01:56:19.421Z,19.44
2022-12-04T01:57:19.404Z,19.44
2022-12-04T01:58:19.394Z,19.46
2022-12-04T01:59:19.380Z,19.46
2022-12-04T02:00:19.405Z,19.46
2022-12-04T02:01:19.405Z,19.46
2022-12-04T02:02:19.626Z,19.44
2022-12-04T02:03:19.333Z,19.47
2022-12-04T02:04:19.325Z,19.46
2022-12-04T02:05:19.326Z,19.46
2022-12-04T02:06:19.329Z,19.46
2022-12-04T02:07:19.297Z,19.46
2022-12-04T02:08:19.430Z,19.47
2022-12-04T02:09:23.112Z,19.46
2022-12-04T02:10:19.266Z,19.47
2022-12-04T02:11:19.255Z,19.46
2022-12-04T02:12:19.270Z,19.47
2022-12-04T02:13:19.226Z,19.47
2022-12-04T02:14:19.214Z,19.47
2022-12-04T02:15:19.209Z,19.47
2022-12-04T02:16:19.287Z,19.47
2022-12-04T02:17:19.191Z,19.48
2022-12-04T02:18:19.222Z,19.48
2022-12-04T02:19:19.162Z,19.46
2022-12-04T02:20:19.155Z,19.47
2022-12-04T02:21:19.146Z,19.47
2022-12-04T02:22:19.135Z,19.47
2022-12-04T02:23:19.118Z,19.47
2022-12-04T02:24:19.154Z,19.46
2022-12-04T02:25:19.102Z,19.46
2022-12-04T02:26:19.090Z,19.47
2022-12-04T02:27:19.070Z,19.46
2022-12-04T02:28:19.069Z,19.46
2022-12-04T02:29:19.058Z,19.46
2022-12-04T02:30:19.078Z,19.47
2022-12-04T02:31:19.124Z,19.46
2022-12-04T02:32:19.029Z,19.46
2022-12-04T02:33:19.009Z,19.46
2022-12-04T02:34:18.998Z,19.47
2022-12-04T02:35:18.986Z,19.46
2022-12-04T02:36:19.013Z,19.46
2022-12-04T02:37:18.970Z,19.47
2022-12-04T02:38:18.955Z,19.46
2022-12-04T02:39:18.951Z,19.46
2022-12-04T02:40:18.937Z,19.46
2022-12-04T02:41:18.924Z,19.46
2022-12-04T02:42:18.957Z,19.47
2022-12-04T02:43:18.903Z,19.46
2022-12-04T02:44:18.895Z,19.44
2022-12-04T02:45:18.887Z,19.47
2022-12-04T02:46:18.935Z,19.46
2022-12-04T02:47:18.859Z,19.44
2022-12-04T02:48:18.870Z,19.46
2022-12-04T02:49:18.840Z,19.43
2022-12-04T02:50:18.826Z,19.43
2022-12-04T02:51:18.820Z,19.44
2022-12-04T02:52:18.798Z,19.44
2022-12-04T02:53:18.796Z,19.44
2022-12-04T02:54:18.816Z,19.43
2022-12-04T02:55:18.771Z,19.43
2022-12-04T02:56:18.765Z,19.43
2022-12-04T02:57:18.751Z,19.44
2022-12-04T02:58:18.739Z,19.44
2022-12-04T02:59:18.727Z,19.44
2022-12-04T03:00:18.743Z,19.46
2022-12-04T03:01:18.736Z,19.46
2022-12-04T03:02:18.783Z,19.46
2022-12-04T03:03:18.688Z,19.44
2022-12-04T03:04:18.676Z,19.44
2022-12-04T03:05:18.663Z,19.46
2022-12-04T03:06:18.687Z,19.47
2022-12-04T03:07:18.647Z,19.48
2022-12-04T03:08:18.718Z,19.46
2022-12-04T03:09:18.625Z,19.48
2022-12-04T03:10:18.611Z,19.47
2022-12-04T03:11:18.601Z,19.50
2022-12-04T03:12:18.618Z,19.50
2022-12-04T03:13:18.586Z,19.50
2022-12-04T03:14:18.568Z,19.48
2022-12-04T03:15:18.557Z,19.48
2022-12-04T03:16:18.632Z,19.48
2022-12-04T03:17:18.532Z,19.47
2022-12-04T03:18:18.552Z,19.48
2022-12-04T03:19:18.535Z,19.48
2022-12-04T03:20:18.539Z,19.48
2022-12-04T03:21:18.511Z,19.48
2022-12-04T03:22:18.476Z,19.47
2022-12-04T03:23:18.472Z,19.48
2022-12-04T03:24:18.486Z,19.50
2022-12-04T03:25:18.450Z,19.48
2022-12-04T03:26:18.449Z,19.47
2022-12-04T03:27:18.472Z,19.47
2022-12-04T03:28:18.432Z,19.48
2022-12-04T03:29:18.418Z,19.48
2022-12-04T03:30:18.410Z,19.50
2022-12-04T03:31:18.407Z,19.50
2022-12-04T03:32:18.366Z,19.50
2022-12-04T03:33:18.361Z,19.48
2022-12-04T03:34:18.352Z,19.48
2022-12-04T03:35:18.339Z,19.47
2022-12-04T03:36:18.433Z,19.46
2022-12-04T03:37:18.326Z,19.47
2022-12-04T03:38:18.309Z,19.47
2022-12-04T03:39:18.290Z,19.46
2022-12-04T03:40:18.290Z,19.47
2022-12-04T03:41:18.275Z,19.46
2022-12-04T03:42:18.284Z,19.46
2022-12-04T03:43:18.255Z,19.46
2022-12-04T03:44:18.246Z,19.47
2022-12-04T03:45:18.225Z,19.46
2022-12-04T03:46:18.267Z,19.47
2022-12-04T03:47:18.201Z,19.47
2022-12-04T03:48:22.889Z,19.47
2022-12-04T03:49:18.190Z,19.46
2022-12-04T03:50:18.169Z,19.46
2022-12-04T03:51:18.165Z,19.46
2022-12-04T03:52:18.154Z,19.47
2022-12-04T03:53:18.138Z,19.46
2022-12-04T03:54:18.149Z,19.46
2022-12-04T03:55:18.123Z,19.46
2022-12-04T03:56:18.110Z,19.44
2022-12-04T03:57:18.102Z,19.46
2022-12-04T03:58:18.085Z,19.46
2022-12-04T03:59:18.074Z,19.44
2022-12-04T04:00:18.082Z,19.44
2022-12-04T04:01:18.162Z,19.44
2022-12-04T04:02:18.105Z,19.46
2022-12-04T04:03:18.029Z,19.46
2022-12-04T04:04:18.027Z,19.46
2022-12-04T04:05:18.012Z,19.46
2022-12-04T04:06:18.034Z,19.46
2022-12-04T04:07:17.988Z,19.46
2022-12-04T04:08:18.177Z,19.46
2022-12-04T04:09:17.992Z,19.48
2022-12-04T04:10:17.958Z,19.46
2022-12-04T04:11:17.950Z,19.46
2022-12-04T04:12:17.970Z,19.47
2022-12-04T04:13:17.930Z,19.46
2022-12-04T04:14:17.910Z,19.47
2022-12-04T04:15:17.906Z,19.47
2022-12-04T04:16:17.967Z,19.47
2022-12-04T04:17:17.883Z,19.47
2022-12-04T04:18:17.898Z,19.47
2022-12-04T04:19:17.862Z,19.47
2022-12-04T04:20:17.843Z,19.46
2022-12-04T04:21:17.843Z,19.47
2022-12-04T04:22:17.819Z,19.48
2022-12-04T04:23:17.819Z,19.48
2022-12-04T04:24:17.851Z,19.48
2022-12-04T04:25:17.797Z,19.50
2022-12-04T04:26:17.787Z,19.48
2022-12-04T04:27:17.772Z,19.50
2022-12-04T04:28:17.763Z,19.50
2022-12-04T04:29:17.755Z,19.50
2022-12-04T04:30:17.788Z,19.51
2022-12-04T04:31:17.791Z,19.50
2022-12-04T04:32:17.715Z,19.51
2022-12-04T04:33:17.707Z,19.50
2022-12-04T04:34:17.699Z,19.50
2022-12-04T04:35:17.683Z,19.50
2022-12-04T04:36:17.699Z,19.51
2022-12-04T04:37:17.664Z,19.51
2022-12-04T04:38:17.655Z,19.51
2022-12-04T04:39:17.643Z,19.51
2022-12-04T04:40:17.632Z,19.50
2022-12-04T04:41:17.621Z,19.50
2022-12-04T04:42:17.771Z,19.50
2022-12-04T04:43:17.592Z,19.50
2022-12-04T04:44:17.589Z,19.50
2022-12-04T04:45:17.572Z,19.51
2022-12-04T04:46:17.616Z,19.51
2022-12-04T04:47:17.572Z,19.54
2022-12-04T04:48:17.711Z,19.51
2022-12-04T04:49:17.528Z,19.54
2022-12-04T04:50:17.533Z,19.54
2022-12-04T04:51:17.508Z,19.51
2022-12-04T04:52:17.500Z,19.51
2022-12-04T04:53:17.489Z,19.51
2022-12-04T04:54:17.515Z,19.51
2022-12-04T04:55:17.464Z,19.51
2022-12-04T04:56:17.469Z,19.51
2022-12-04T04:57:17.440Z,19.51
2022-12-04T04:58:17.436Z,19.51
2022-12-04T04:59:17.435Z,19.51
2022-12-04T05:00:17.432Z,19.51
2022-12-04T05:01:17.465Z,19.51
2022-12-04T05:02:17.384Z,19.54
2022-12-04T05:03:17.439Z,19.51
2022-12-04T05:04:17.368Z,19.50
2022-12-04T05:05:17.353Z,19.50
2022-12-04T05:06:17.373Z,19.50
2022-12-04T05:07:17.332Z,19.51
2022-12-04T05:08:17.472Z,19.50
2022-12-04T05:09:17.322Z,19.50
2022-12-04T05:10:17.306Z,19.50
2022-12-04T05:11:17.292Z,19.50
2022-12-04T05:12:17.316Z,19.50
2022-12-04T05:13:17.269Z,19.48
2022-12-04T05:14:17.261Z,19.50
2022-12-04T05:15:17.252Z,19.48
2022-12-04T05:16:17.330Z,19.48
2022-12-04T05:17:17.244Z,19.48
2022-12-04T05:18:17.243Z,19.48
2022-12-04T05:19:17.334Z,19.48
2022-12-04T05:20:17.194Z,19.47
2022-12-04T05:21:17.182Z,19.50
2022-12-04T05:22:17.170Z,19.50
2022-12-04T05:23:17.169Z,19.50
2022-12-04T05:24:17.190Z,19.50
2022-12-04T05:25:17.138Z,19.50
2022-12-04T05:26:17.130Z,19.50
2022-12-04T05:27:17.117Z,19.48
2022-12-04T05:28:17.106Z,19.50
2022-12-04T05:29:17.095Z,19.50
2022-12-04T05:30:17.130Z,19.50
2022-12-04T05:31:17.136Z,19.48
2022-12-04T05:32:17.062Z,19.50
2022-12-04T05:33:17.059Z,19.50
2022-12-04T05:34:17.033Z,19.50
2022-12-04T05:35:17.045Z,19.50
2022-12-04T05:36:17.053Z,19.50
2022-12-04T05:37:17.011Z,19.54
2022-12-04T05:38:16.990Z,19.51
2022-12-04T05:39:16.986Z,19.51
2022-12-04T05:40:16.970Z,19.51
2022-12-04T05:41:16.974Z,19.51
2022-12-04T05:42:16.995Z,19.51
2022-12-04T05:43:16.944Z,19.51
2022-12-04T05:44:16.935Z,19.51
2022-12-04T05:45:16.919Z,19.54
2022-12-04T05:46:17.010Z,19.54
2022-12-04T05:47:16.902Z,19.54
2022-12-04T05:48:16.956Z,19.54
2022-12-04T05:49:16.883Z,19.54
2022-12-04T05:50:16.877Z,19.55
2022-12-04T05:51:16.859Z,19.55
2022-12-04T05:52:16.848Z,19.55
2022-12-04T05:53:16.843Z,19.55
2022-12-04T05:54:16.867Z,19.56
2022-12-04T05:55:16.815Z,19.55
2022-12-04T05:56:16.800Z,19.56
2022-12-04T05:57:16.787Z,19.55
2022-12-04T05:58:16.775Z,19.56
2022-12-04T05:59:16.772Z,19.56
2022-12-04T06:00:16.795Z,19.56
2022-12-04T06:01:16.745Z,19.55
2022-12-04T06:02:16.829Z,19.55
2022-12-04T06:03:16.831Z,19.55
2022-12-04T06:04:16.719Z,19.55
2022-12-04T06:05:16.708Z,19.56
2022-12-04T06:06:21.500Z,19.55
2022-12-04T06:07:16.688Z,19.56
2022-12-04T06:08:16.746Z,19.55
2022-12-04T06:09:16.661Z,19.55
2022-12-04T06:10:16.648Z,19.54
2022-12-04T06:11:16.636Z,19.55
2022-12-04T06:12:16.783Z,19.55
2022-12-04T06:13:16.620Z,19.56
2022-12-04T06:14:16.607Z,19.56
2022-12-04T06:15:16.605Z,19.56
2022-12-04T06:16:16.701Z,19.55
2022-12-04T06:17:16.575Z,19.55
2022-12-04T06:18:16.601Z,19.55
2022-12-04T06:19:16.556Z,19.55
2022-12-04T06:20:16.619Z,19.55
2022-12-04T06:21:16.528Z,19.54
2022-12-04T06:22:16.516Z,19.55
2022-12-04T06:23:16.508Z,19.54
2022-12-04T06:24:16.541Z,19.54
2022-12-04T06:25:16.488Z,19.54
2022-12-04T06:26:16.482Z,19.54
2022-12-04T06:27:31.714Z,19.51
2022-12-04T06:28:16.468Z,19.54
2022-12-04T06:29:16.449Z,19.55
2022-12-04T06:30:16.467Z,19.51
2022-12-04T06:31:16.487Z,19.54
2022-12-04T06:32:21.202Z,19.51
2022-12-04T06:33:16.405Z,19.54
2022-12-04T06:34:16.408Z,19.54
2022-12-04T06:35:16.393Z,19.54
2022-12-04T06:36:16.413Z,19.54
2022-12-04T06:37:16.358Z,19.54
2022-12-04T06:38:16.344Z,19.51
2022-12-04T06:39:18.989Z,19.54
2022-12-04T06:40:16.329Z,19.54
2022-12-04T06:41:16.309Z,19.55
2022-12-04T06:42:16.336Z,19.56
2022-12-04T06:43:16.299Z,19.55
2022-12-04T06:44:16.289Z,19.56
2022-12-04T06:45:16.269Z,19.56
2022-12-04T06:46:16.333Z,19.56
2022-12-04T06:47:16.255Z,19.56
2022-12-04T06:48:16.257Z,19.56
2022-12-04T06:49:16.225Z,19.59
2022-12-04T06:50:16.217Z,19.58
2022-12-04T06:51:16.222Z,19.59
2022-12-04T06:52:16.193Z,19.59
2022-12-04T06:53:16.181Z,19.58
2022-12-04T06:54:16.210Z,19.58
2022-12-04T06:55:16.166Z,19.59
2022-12-04T06:56:16.149Z,19.59
2022-12-04T06:57:16.142Z,19.59
2022-12-04T06:58:16.126Z,19.58
2022-12-04T06:59:16.114Z,19.59
2022-12-04T07:00:16.142Z,19.61
2022-12-04T07:01:16.195Z,19.59
2022-12-04T07:02:16.168Z,19.59
2022-12-04T07:03:16.074Z,19.59
2022-12-04T07:04:16.066Z,19.59
2022-12-04T07:05:16.054Z,19.58
2022-12-04T07:06:16.078Z,19.58
2022-12-04T07:07:16.034Z,19.58
2022-12-04T07:08:16.092Z,19.59
2022-12-04T07:09:16.013Z,19.59
2022-12-04T07:10:15.995Z,19.59
2022-12-04T07:11:15.987Z,19.59
2022-12-04T07:12:16.031Z,19.59
2022-12-04T07:13:15.963Z,19.59
2022-12-04T07:14:15.961Z,19.59
2022-12-04T07:15:15.946Z,19.59
2022-12-04T07:16:16.070Z,19.59
2022-12-04T07:17:15.988Z,19.59
2022-12-04T07:18:15.935Z,19.59
2022-12-04T07:19:15.898Z,19.59
2022-12-04T07:20:15.891Z,19.59
2022-12-04T07:21:15.882Z,19.61
2022-12-04T07:22:15.870Z,19.61
2022-12-04T07:23:15.855Z,19.61
2022-12-04T07:24:15.884Z,19.59
2022-12-04T07:25:15.840Z,19.59
2022-12-04T07:26:15.827Z,19.59
2022-12-04T07:27:15.814Z,19.61
2022-12-04T07:28:15.799Z,19.59
2022-12-04T07:29:15.794Z,19.59
2022-12-04T07:30:16.256Z,19.58
2022-12-04T07:31:15.861Z,19.58
2022-12-04T07:32:15.799Z,19.58
2022-12-04T07:33:15.743Z,19.58
2022-12-04T07:34:15.742Z,19.58
2022-12-04T07:35:15.732Z,19.58
2022-12-04T07:36:15.863Z,19.56
2022-12-04T07:37:15.703Z,19.56
2022-12-04T07:38:15.696Z,19.56
2022-12-04T07:39:15.697Z,19.56
2022-12-04T07:40:15.675Z,19.56
2022-12-04T07:41:15.683Z,19.55
2022-12-04T07:42:21.015Z,19.56
2022-12-04T07:43:15.656Z,19.58
2022-12-04T07:44:15.627Z,19.59
2022-12-04T07:45:15.648Z,19.59
2022-12-04T07:46:15.754Z,19.58
2022-12-04T07:47:15.600Z,19.58
2022-12-04T07:48:15.736Z,19.59
2022-12-04T07:49:15.580Z,19.58
2022-12-04T07:50:15.559Z,19.58
2022-12-04T07:51:15.548Z,19.58
2022-12-04T07:52:15.548Z,19.58
2022-12-04T07:53:15.532Z,19.58
2022-12-04T07:54:15.576Z,19.58
2022-12-04T07:55:20.133Z,19.58
2022-12-04T07:56:15.515Z,19.56
2022-12-04T07:57:15.490Z,19.56
2022-12-04T07:58:15.480Z,19.58
2022-12-04T07:59:15.472Z,19.58
2022-12-04T08:00:15.489Z,19.59
2022-12-04T08:01:15.661Z,19.58
2022-12-04T08:02:15.438Z,19.58
2022-12-04T08:03:15.429Z,19.58
2022-12-04T08:04:15.475Z,19.58
2022-12-04T08:05:15.397Z,19.59
2022-12-04T08:06:15.424Z,19.59
2022-12-04T08:07:15.382Z,19.59
2022-12-04T08:08:15.499Z,19.58
2022-12-04T08:09:15.357Z,19.59
2022-12-04T08:10:15.351Z,19.58
2022-12-04T08:11:15.341Z,19.59
2022-12-04T08:12:15.349Z,19.59
2022-12-04T08:13:15.321Z,19.59
2022-12-04T08:14:15.305Z,19.61
2022-12-04T08:15:15.294Z,19.61
2022-12-04T08:16:15.400Z,19.59
2022-12-04T08:17:15.364Z,19.61
2022-12-04T08:18:15.290Z,19.59
2022-12-04T08:19:15.250Z,19.59
2022-12-04T08:20:15.243Z,19.58
2022-12-04T08:21:15.225Z,19.58
2022-12-04T08:22:18.028Z,19.59
2022-12-04T08:23:15.213Z,19.59
2022-12-04T08:24:15.229Z,19.59
2022-12-04T08:25:15.182Z,19.59
2022-12-04T08:26:15.173Z,19.59
2022-12-04T08:27:15.162Z,19.58
2022-12-04T08:28:15.146Z,19.58
2022-12-04T08:29:15.143Z,19.59
2022-12-04T08:30:15.158Z,19.58
2022-12-04T08:31:15.171Z,19.58
2022-12-04T08:32:15.106Z,19.59
2022-12-04T08:33:15.098Z,19.59
2022-12-04T08:34:15.086Z,19.59
2022-12-04T08:35:15.076Z,19.59
2022-12-04T08:36:15.089Z,19.59
2022-12-04T08:37:15.058Z,19.59
2022-12-04T08:38:15.042Z,19.59
2022-12-04T08:39:15.038Z,19.59
2022-12-04T08:40:15.023Z,19.58
2022-12-04T08:41:15.006Z,19.59
2022-12-04T08:42:15.022Z,19.58
2022-12-04T08:43:14.994Z,19.59
2022-12-04T08:44:14.978Z,19.58
2022-12-04T08:45:14.967Z,19.59
2022-12-04T08:46:15.091Z,19.56
2022-12-04T08:47:14.947Z,19.59
2022-12-04T08:48:14.975Z,19.58
2022-12-04T08:49:14.927Z,19.58
2022-12-04T08:50:14.914Z,19.58
2022-12-04T08:51:14.918Z,19.58
2022-12-04T08:52:14.895Z,19.58
2022-12-04T08:53:14.883Z,19.58
2022-12-04T08:54:14.904Z,19.59
2022-12-04T08:55:14.860Z,19.58
2022-12-04T08:56:14.850Z,19.58
2022-12-04T08:57:14.839Z,19.58
2022-12-04T08:58:14.827Z,19.58
2022-12-04T08:59:14.819Z,19.59
2022-12-04T09:00:14.835Z,19.58
2022-12-04T09:01:14.905Z,19.59
2022-12-04T09:02:14.784Z,19.58
2022-12-04T09:03:14.770Z,19.58
2022-12-04T09:04:14.819Z,19.59
2022-12-04T09:05:14.757Z,19.59
2022-12-04T09:06:14.776Z,19.59
2022-12-04T09:07:14.727Z,19.59
2022-12-04T09:08:14.870Z,19.59
2022-12-04T09:09:14.707Z,19.58
2022-12-04T09:10:14.700Z,19.59
2022-12-04T09:11:14.710Z,19.59
2022-12-04T09:12:14.709Z,19.58
2022-12-04T09:13:14.660Z,19.59
2022-12-04T09:14:14.648Z,19.61
2022-12-04T09:15:14.644Z,19.59
2022-12-04T09:16:14.741Z,19.61
2022-12-04T09:17:14.622Z,19.58
2022-12-04T09:18:14.648Z,19.59
2022-12-04T09:19:14.600Z,19.61
2022-12-04T09:20:14.592Z,19.61
2022-12-04T09:21:14.576Z,19.61
2022-12-04T09:22:14.567Z,19.61
2022-12-04T09:23:14.556Z,19.62
2022-12-04T09:24:14.579Z,19.61
2022-12-04T09:25:14.532Z,19.62
2022-12-04T09:26:14.528Z,19.61
2022-12-04T09:27:15.187Z,19.62
2022-12-04T09:28:14.504Z,19.61
2022-12-04T09:29:14.488Z,19.61
2022-12-04T09:30:14.518Z,19.61
2022-12-04T09:31:14.595Z,19.62
2022-12-04T09:32:14.456Z,19.62
2022-12-04T09:33:14.454Z,19.62
2022-12-04T09:34:14.441Z,19.62
2022-12-04T09:35:14.424Z,19.61
2022-12-04T09:36:14.448Z,19.59
2022-12-04T09:37:14.409Z,19.62
2022-12-04T09:38:14.396Z,19.62
2022-12-04T09:39:14.386Z,19.62
2022-12-04T09:40:14.375Z,19.63
2022-12-04T09:41:14.361Z,19.62
2022-12-04T09:42:14.373Z,19.62
2022-12-04T09:43:14.340Z,19.61
2022-12-04T09:44:14.324Z,19.62
2022-12-04T09:45:14.321Z,19.63
2022-12-04T09:46:14.411Z,19.65
2022-12-04T09:47:14.302Z,19.66
2022-12-04T09:48:14.333Z,19.69
2022-12-04T09:49:14.273Z,19.69
2022-12-04T09:50:14.260Z,19.59
2022-12-04T09:51:14.252Z,19.41
2022-12-04T09:52:17.464Z,19.22
2022-12-04T09:53:14.238Z,19.02
2022-12-04T09:54:14.243Z,18.81
2022-12-04T09:55:14.210Z,18.66
2022-12-04T09:56:14.205Z,18.54
2022-12-04T09:57:14.182Z,18.47
2022-12-04T09:58:14.178Z,18.36
2022-12-04T09:59:14.161Z,18.30
2022-12-04T10:00:14.189Z,18.25
2022-12-04T10:01:14.145Z,18.21
2022-12-04T10:02:14.203Z,18.18
2022-12-04T10:03:14.296Z,18.15
2022-12-04T10:04:14.227Z,18.14
2022-12-04T10:05:14.095Z,18.10
2022-12-04T10:06:14.122Z,18.07
2022-12-04T10:07:14.074Z,18.02
2022-12-04T10:08:14.135Z,17.97
2022-12-04T10:09:14.059Z,17.99
2022-12-04T10:10:14.046Z,17.97
2022-12-04T10:11:14.035Z,17.96
2022-12-04T10:12:14.065Z,17.93
2022-12-04T10:13:14.014Z,17.90
2022-12-04T10:14:14.002Z,17.87
2022-12-04T10:15:13.996Z,17.82
2022-12-04T10:16:14.087Z,17.78
2022-12-04T10:17:13.963Z,17.78
2022-12-04T10:18:13.992Z,17.77
2022-12-04T10:19:13.942Z,17.74
2022-12-04T10:20:13.935Z,17.71
2022-12-04T10:21:13.925Z,17.71
2022-12-04T10:22:13.914Z,17.70
2022-12-04T10:23:14.350Z,17.66
2022-12-04T10:24:13.939Z,17.64
2022-12-04T10:25:13.875Z,17.66
2022-12-04T10:26:13.875Z,17.68
2022-12-04T10:27:13.863Z,17.64
2022-12-04T10:28:13.851Z,17.64
2022-12-04T10:29:13.840Z,17.66
2022-12-04T10:30:13.859Z,17.66
2022-12-04T10:31:13.933Z,17.68
2022-12-04T10:32:13.798Z,17.66
2022-12-04T10:33:13.793Z,17.63
2022-12-04T10:34:13.782Z,17.63
2022-12-04T10:35:13.767Z,17.64
2022-12-04T10:36:13.802Z,17.68
2022-12-04T10:37:13.739Z,17.78
2022-12-04T10:38:13.736Z,17.93
2022-12-04T10:39:13.727Z,18.07
2022-12-04T10:40:13.711Z,18.18
2022-12-04T10:41:15.309Z,18.30
2022-12-04T10:42:13.739Z,18.37
2022-12-04T10:43:13.683Z,18.47
2022-12-04T10:44:13.669Z,18.52
2022-12-04T10:45:13.651Z,18.58
2022-12-04T10:46:13.694Z,18.63
2022-12-04T10:47:13.752Z,18.66
2022-12-04T10:48:13.648Z,18.70
2022-12-04T10:49:13.617Z,18.72
2022-12-04T10:50:13.606Z,18.75
2022-12-04T10:51:13.595Z,18.78
2022-12-04T10:52:13.584Z,18.80
2022-12-04T10:53:14.042Z,18.82
2022-12-04T10:54:13.581Z,18.84
2022-12-04T10:55:13.557Z,18.85
2022-12-04T10:56:13.535Z,18.88
2022-12-04T10:57:13.523Z,18.90
2022-12-04T10:58:13.509Z,18.91
2022-12-04T10:59:13.507Z,18.91
2022-12-04T11:00:13.520Z,18.91
2022-12-04T11:01:13.480Z,18.94
2022-12-04T11:02:13.562Z,18.94
2022-12-04T11:03:13.517Z,18.94
2022-12-04T11:04:13.449Z,18.95
2022-12-04T11:05:13.436Z,18.98
2022-12-04T11:06:13.456Z,18.98
2022-12-04T11:07:13.424Z,18.98
2022-12-04T11:08:19.599Z,18.99
2022-12-04T11:09:13.396Z,18.99
2022-12-04T11:10:13.384Z,19.00
2022-12-04T11:11:13.372Z,19.00
2022-12-04T11:12:13.389Z,19.00
2022-12-04T11:13:13.344Z,19.00
2022-12-04T11:14:13.337Z,19.02
2022-12-04T11:15:13.328Z,19.02
2022-12-04T11:16:13.412Z,19.04
2022-12-04T11:17:13.301Z,19.04
2022-12-04T11:18:13.317Z,19.06
2022-12-04T11:19:13.277Z,19.06
2022-12-04T11:20:13.275Z,19.06
2022-12-04T11:21:13.252Z,19.04
2022-12-04T11:22:13.251Z,19.06
2022-12-04T11:23:13.235Z,19.04
2022-12-04T11:24:13.241Z,19.04
2022-12-04T11:25:13.213Z,19.06
2022-12-04T11:26:13.205Z,19.04
2022-12-04T11:27:13.193Z,19.06
2022-12-04T11:28:33.644Z,19.07
2022-12-04T11:29:13.178Z,19.06
2022-12-04T11:30:13.197Z,19.06
2022-12-04T11:31:13.189Z,19.08
2022-12-04T11:32:13.134Z,19.07
2022-12-04T11:33:13.122Z,19.07
2022-12-04T11:34:13.117Z,19.07
2022-12-04T11:35:13.105Z,19.08
2022-12-04T11:36:13.132Z,19.07
2022-12-04T11:37:13.077Z,19.08
2022-12-04T11:38:13.074Z,19.08
2022-12-04T11:39:13.073Z,19.10
2022-12-04T11:40:13.046Z,19.10
2022-12-04T11:41:13.039Z,19.10
2022-12-04T11:42:13.070Z,19.08
2022-12-04T11:43:13.013Z,19.10
2022-12-04T11:44:13.001Z,19.11
2022-12-04T11:45:12.997Z,19.10
2022-12-04T11:46:12.999Z,19.10
2022-12-04T11:47:13.069Z,19.10
2022-12-04T11:48:12.998Z,19.10
2022-12-04T11:49:12.954Z,19.10
2022-12-04T11:50:12.938Z,19.11
2022-12-04T11:51:12.926Z,19.13
2022-12-04T11:52:12.921Z,19.13
2022-12-04T11:53:12.906Z,19.13
2022-12-04T11:54:12.922Z,19.13
2022-12-04T11:55:12.879Z,19.14
2022-12-04T11:56:12.875Z,19.14
2022-12-04T11:57:12.859Z,19.16
2022-12-04T11:58:12.846Z,19.16
2022-12-04T11:59:12.842Z,19.14
2022-12-04T12:00:12.965Z,19.16
2022-12-04T12:01:12.818Z,19.19
2022-12-04T12:02:12.935Z,19.19
2022-12-04T12:03:12.957Z,19.18
2022-12-04T12:04:12.779Z,19.18
2022-12-04T12:05:12.778Z,19.19
2022-12-04T12:06:12.788Z,19.19
2022-12-04T12:07:12.759Z,19.21
2022-12-04T12:08:12.744Z,19.21
2022-12-04T12:09:12.733Z,19.21
2022-12-04T12:10:12.725Z,19.19
2022-12-04T12:11:12.714Z,19.19
2022-12-04T12:12:12.728Z,19.19
2022-12-04T12:13:12.691Z,19.21
2022-12-04T12:14:12.676Z,19.21
2022-12-04T12:15:12.668Z,19.21
2022-12-04T12:16:12.726Z,19.22
2022-12-04T12:17:12.647Z,19.21
2022-12-04T12:18:13.597Z,19.21
2022-12-04T12:19:12.626Z,19.19
2022-12-04T12:20:12.612Z,19.22
2022-12-04T12:21:12.592Z,19.21
2022-12-04T12:22:12.590Z,19.25
2022-12-04T12:23:12.587Z,19.32
2022-12-04T12:24:12.723Z,19.37
2022-12-04T12:25:12.556Z,19.41
2022-12-04T12:26:12.548Z,19.46
2022-12-04T12:27:12.545Z,19.48
2022-12-04T12:28:12.527Z,19.51
2022-12-04T12:29:12.516Z,19.48
2022-12-04T12:30:12.544Z,19.46
2022-12-04T12:31:12.491Z,19.43
2022-12-04T12:32:12.577Z,19.41
2022-12-04T12:33:12.463Z,19.40
2022-12-04T12:34:12.461Z,19.39
2022-12-04T12:35:12.451Z,19.37
2022-12-04T12:36:12.471Z,19.37
2022-12-04T12:37:12.428Z,19.36
2022-12-04T12:38:12.418Z,19.33
2022-12-04T12:39:12.403Z,19.36
2022-12-04T12:40:12.391Z,19.33
2022-12-04T12:41:12.386Z,19.33
2022-12-04T12:42:12.399Z,19.32
2022-12-04T12:43:12.436Z,19.32
2022-12-04T12:44:12.351Z,19.32
2022-12-04T12:45:12.340Z,19.33
2022-12-04T12:46:12.359Z,19.31
2022-12-04T12:47:12.316Z,19.32
2022-12-04T12:48:12.332Z,19.32
2022-12-04T12:49:12.299Z,19.32
2022-12-04T12:50:12.301Z,19.33
2022-12-04T12:51:29.486Z,19.33
2022-12-04T12:52:12.261Z,19.33